Time,TemperatureF,DewpointF,PressureIn,WindDirection,WindDirectionDegrees,WindSpeedMPH,WindSpeedGustMPH,Humidity,HourlyPrecipIn,Conditions,Clouds,dailyrainin,SoftwareType,DateUTC
2013-01-29 00:00:00,35.2,33.4,30.29,East,84,0.0,0.0,93,0.00,,CLR,0.00,VWS V14.01,2013-01-29 05:00:00,
2013-01-29 00:03:00,35.2,33.4,30.29,East,85,0.0,0.0,93,0.00,,CLR,0.00,VWS V14.01,2013-01-29 05:03:00,
2013-01-29 00:06:00,35.2,33.4,30.30,East,85,1.0,1.0,93,0.00,,CLR,0.00,VWS V14.01,2013-01-29 05:06:00,
2013-01-29 00:11:00,35.0,33.2,30.30,East,84,0.0,0.0,93,0.00,,CLR,0.00,VWS V14.01,2013-01-29 05:11:00,
2013-01-29 00:17:00,35.0,33.2,30.29,East,85,0.0,0.0,93,0.00,,CLR,0.00,VWS V14.01,2013-01-29 05:17:00,
2013-01-29 00:22:00,34.8,33.0,30.29,East,84,0.0,0.0,93,0.00,,CLR,0.00,VWS V14.01,2013-01-29 05:22:00,
2013-01-29 00:27:00,34.6,32.8,30.29,East,85,0.0,0.0,93,0.00,,CLR,0.00,VWS V14.01,2013-01-29 05:27:00,
2013-01-29 00:32:00,34.5,32.7,30.29,East,84,0.0,0.0,93,0.00,,CLR,0.00,VWS V14.01,2013-01-29 05:32:00,
2013-01-29 00:37:00,34.4,32.6,30.29,East,84,0.0,0.0,93,0.00,,CLR,0.00,VWS V14.01,2013-01-29 05:37:00,
2013-01-29 00:42:00,34.3,32.5,30.29,East,84,0.0,1.0,93,0.00,,CLR,0.00,VWS V14.01,2013-01-29 05:42:00,
2013-01-29 00:47:00,34.3,32.5,30.29,East,84,0.0,1.0,93,0.00,,CLR,0.00,VWS V14.01,2013-01-29 05:47:00,
2013-01-29 00:52:00,34.1,32.3,30.29,East,84,0.0,0.0,93,0.00,,CLR,0.00,VWS V14.01,2013-01-29 05:52:00,
2013-01-29 00:57:00,33.9,32.1,30.28,East,84,0.0,0.0,93,0.00,,CLR,0.00,VWS V14.01,2013-01-29 05:57:00,
2013-01-29 01:02:00,33.9,32.1,30.28,East,84,0.0,0.0,93,0.00,,CLR,0.00,VWS V14.01,2013-01-29 06:02:00,
2013-01-29 01:07:00,33.8,32.0,30.29,East,84,0.0,0.0,93,0.00,,CLR,0.00,VWS V14.01,2013-01-29 06:07:00,
2013-01-29 01:12:00,33.7,31.9,30.28,East,84,0.0,0.0,93,0.00,,CLR,0.00,VWS V14.01,2013-01-29 06:12:00,
2013-01-29 01:17:00,33.7,31.9,30.28,East,84,0.0,0.0,93,0.00,,CLR,0.00,VWS V14.01,2013-01-29 06:17:00,
2013-01-29 01:22:00,33.6,31.8,30.28,SSE,156,0.0,0.0,93,0.00,,CLR,0.00,VWS V14.01,2013-01-29 06:22:00,
2013-01-29 01:27:00,33.5,31.7,30.28,SSE,155,0.0,0.0,93,0.00,,CLR,0.00,VWS V14.01,2013-01-29 06:27:00,
2013-01-29 01:32:00,33.3,31.5,30.29,SSE,155,0.0,0.0,93,0.00,,CLR,0.00,VWS V14.01,2013-01-29 06:32:00,
2013-01-29 01:37:00,33.2,31.4,30.28,SSE,153,0.0,0.0,93,0.00,,CLR,0.00,VWS V14.01,2013-01-29 06:37:00,
2013-01-29 01:42:00,33.2,31.4,30.28,SSE,150,0.0,0.0,93,0.00,,CLR,0.00,VWS V14.01,2013-01-29 06:42:00,
2013-01-29 01:48:00,33.3,31.5,30.28,SSE,150,0.0,0.0,93,0.00,,CLR,0.00,VWS V14.01,2013-01-29 06:48:00,
2013-01-29 01:53:00,33.2,31.4,30.28,SSE,150,0.0,0.0,93,0.00,,CLR,0.00,VWS V14.01,2013-01-29 06:53:00,
2013-01-29 01:58:00,33.0,31.2,30.28,SSE,150,0.0,0.0,93,0.00,,CLR,0.00,VWS V14.01,2013-01-29 06:58:00,
2013-01-29 02:03:00,32.9,31.1,30.28,SE,146,0.0,0.0,93,0.00,,CLR,0.00,VWS V14.01,2013-01-29 07:03:00,
2013-01-29 02:09:00,32.8,31.0,30.28,SE,146,0.0,0.0,93,0.00,,CLR,0.00,VWS V14.01,2013-01-29 07:09:00,
2013-01-29 02:14:00,32.7,30.9,30.28,SE,146,0.0,0.0,93,0.00,,CLR,0.00,VWS V14.01,2013-01-29 07:14:00,
2013-01-29 02:19:00,32.6,30.8,30.28,SSE,147,0.0,0.0,93,0.00,,CLR,0.00,VWS V14.01,2013-01-29 07:19:00,
2013-01-29 02:24:00,32.6,30.8,30.28,SE,146,0.0,0.0,93,0.00,,CLR,0.00,VWS V14.01,2013-01-29 07:24:00,
2013-01-29 02:29:00,32.6,30.8,30.28,SE,146,0.0,0.0,93,0.00,,CLR,0.00,VWS V14.01,2013-01-29 07:29:00,
2013-01-29 02:35:00,32.6,30.8,30.28,SSW,197,1.0,1.0,93,0.00,,CLR,0.00,VWS V14.01,2013-01-29 07:35:00,
2013-01-29 02:40:00,32.5,30.7,30.27,East,98,1.0,1.0,93,0.00,,CLR,0.00,VWS V14.01,2013-01-29 07:40:00,
2013-01-29 02:45:00,32.3,30.5,30.28,West,276,0.0,0.0,93,0.00,,CLR,0.00,VWS V14.01,2013-01-29 07:45:00,
2013-01-29 02:50:00,32.2,30.4,30.28,West,275,0.0,0.0,93,0.00,,CLR,0.00,VWS V14.01,2013-01-29 07:50:00,
2013-01-29 02:55:00,32.2,30.4,30.27,West,276,0.0,0.0,93,0.00,,CLR,0.00,VWS V14.01,2013-01-29 07:55:00,
2013-01-29 03:00:00,32.2,30.4,30.28,West,276,0.0,1.0,93,0.00,,CLR,0.00,VWS V14.01,2013-01-29 08:00:00,
2013-01-29 03:05:00,32.2,30.4,30.28,West,276,0.0,0.0,93,0.00,,CLR,0.00,VWS V14.01,2013-01-29 08:05:00,
2013-01-29 03:10:00,32.2,30.4,30.27,West,276,0.0,0.0,93,0.00,,CLR,0.00,VWS V14.01,2013-01-29 08:10:00,
2013-01-29 03:15:00,32.1,30.3,30.27,West,275,0.0,0.0,93,0.00,,CLR,0.00,VWS V14.01,2013-01-29 08:15:00,
2013-01-29 03:20:00,32.0,30.2,30.27,West,274,0.0,0.0,93,0.00,,CLR,0.00,VWS V14.01,2013-01-29 08:20:00,
2013-01-29 03:25:00,31.8,30.0,30.27,West,274,0.0,0.0,93,0.00,,CLR,0.00,VWS V14.01,2013-01-29 08:25:00,
2013-01-29 03:30:00,31.7,29.9,30.27,West,276,0.0,0.0,93,0.00,,CLR,0.00,VWS V14.01,2013-01-29 08:30:00,
2013-01-29 03:35:00,31.7,29.9,30.26,NNE,23,0.0,0.0,93,0.00,,CLR,0.00,VWS V14.01,2013-01-29 08:35:00,
2013-01-29 03:40:00,31.7,29.9,30.26,NNE,21,0.0,0.0,93,0.00,,CLR,0.00,VWS V14.01,2013-01-29 08:40:00,
2013-01-29 03:45:00,31.6,29.8,30.26,NNE,22,0.0,0.0,93,0.00,,CLR,0.00,VWS V14.01,2013-01-29 08:45:00,
2013-01-29 03:50:00,31.6,29.8,30.26,NNE,21,0.0,0.0,93,0.00,,CLR,0.00,VWS V14.01,2013-01-29 08:50:00,
2013-01-29 03:55:00,31.5,29.7,30.26,NNE,22,0.0,0.0,93,0.00,,CLR,0.00,VWS V14.01,2013-01-29 08:55:00,
2013-01-29 04:00:00,31.4,29.6,30.26,NNE,23,0.0,0.0,93,0.00,,CLR,0.00,VWS V14.01,2013-01-29 09:00:00,
2013-01-29 04:05:00,31.3,29.8,30.26,NNE,22,0.0,0.0,94,0.00,,CLR,0.00,VWS V14.01,2013-01-29 09:05:00,
2013-01-29 04:11:00,31.2,29.4,30.26,NNE,21,0.0,0.0,93,0.00,,CLR,0.00,VWS V14.01,2013-01-29 09:11:00,
2013-01-29 04:16:00,31.3,29.8,30.26,NNE,22,0.0,0.0,94,0.00,,CLR,0.00,VWS V14.01,2013-01-29 09:16:00,
2013-01-29 04:21:00,31.4,29.9,30.26,NNE,21,0.0,0.0,94,0.00,,CLR,0.00,VWS V14.01,2013-01-29 09:21:00,
2013-01-29 04:26:00,31.4,29.9,30.26,NNE,22,0.0,0.0,94,0.00,,CLR,0.00,VWS V14.01,2013-01-29 09:26:00,
2013-01-29 04:31:00,31.7,30.2,30.26,NNE,21,0.0,0.0,94,0.00,,CLR,0.00,VWS V14.01,2013-01-29 09:31:00,
2013-01-29 04:36:00,31.8,30.3,30.26,NNE,21,0.0,1.0,94,0.00,,CLR,0.00,VWS V14.01,2013-01-29 09:36:00,
2013-01-29 04:41:00,31.8,30.3,30.26,NNE,22,0.0,0.0,94,0.00,,CLR,0.00,VWS V14.01,2013-01-29 09:41:00,
2013-01-29 04:46:00,31.6,30.1,30.26,NNE,22,0.0,1.0,94,0.00,,CLR,0.00,VWS V14.01,2013-01-29 09:46:00,
2013-01-29 04:51:00,31.6,30.1,30.26,NNE,21,0.0,0.0,94,0.00,,CLR,0.00,VWS V14.01,2013-01-29 09:51:00,
2013-01-29 04:56:00,31.7,30.2,30.25,NNE,21,0.0,0.0,94,0.00,,CLR,0.00,VWS V14.01,2013-01-29 09:56:00,
2013-01-29 05:01:00,31.7,30.2,30.25,NNE,21,0.0,0.0,94,0.00,,CLR,0.00,VWS V14.01,2013-01-29 10:01:00,
2013-01-29 05:06:00,31.6,30.1,30.25,NNE,21,0.0,0.0,94,0.00,,CLR,0.00,VWS V14.01,2013-01-29 10:06:00,
2013-01-29 05:11:00,31.5,30.0,30.25,NNE,21,0.0,1.0,94,0.00,,CLR,0.00,VWS V14.01,2013-01-29 10:11:00,
2013-01-29 05:16:00,31.4,29.9,30.25,NNE,22,0.0,0.0,94,0.00,,CLR,0.00,VWS V14.01,2013-01-29 10:16:00,
2013-01-29 05:21:00,31.6,30.1,30.25,NNE,22,0.0,0.0,94,0.00,,CLR,0.00,VWS V14.01,2013-01-29 10:21:00,
2013-01-29 05:26:00,31.6,30.1,30.25,NNE,22,0.0,0.0,94,0.00,,CLR,0.00,VWS V14.01,2013-01-29 10:26:00,
2013-01-29 05:31:00,31.7,30.2,30.25,NNE,21,0.0,0.0,94,0.00,,CLR,0.00,VWS V14.01,2013-01-29 10:31:00,
2013-01-29 05:37:00,31.8,30.3,30.25,NNE,22,0.0,0.0,94,0.00,,CLR,0.00,VWS V14.01,2013-01-29 10:37:00,
2013-01-29 05:42:00,31.9,30.4,30.25,NNE,21,0.0,0.0,94,0.00,,CLR,0.00,VWS V14.01,2013-01-29 10:42:00,
2013-01-29 05:47:00,32.0,30.5,30.25,NNE,22,0.0,0.0,94,0.00,,CLR,0.00,VWS V14.01,2013-01-29 10:47:00,
2013-01-29 05:52:00,32.3,30.8,30.25,NNE,21,0.0,0.0,94,0.00,,CLR,0.00,VWS V14.01,2013-01-29 10:52:00,
2013-01-29 05:57:00,32.6,31.1,30.25,NNE,22,0.0,0.0,94,0.00,,CLR,0.00,VWS V14.01,2013-01-29 10:57:00,
2013-01-29 06:02:00,32.9,31.4,30.25,NNE,21,0.0,0.0,94,0.00,,CLR,0.00,VWS V14.01,2013-01-29 11:02:00,
2013-01-29 06:07:00,32.9,31.4,30.25,NNE,22,0.0,0.0,94,0.00,,CLR,0.00,VWS V14.01,2013-01-29 11:07:00,
2013-01-29 06:12:00,32.9,31.4,30.25,NNE,21,0.0,0.0,94,0.00,,CLR,0.00,VWS V14.01,2013-01-29 11:12:00,
2013-01-29 06:17:00,32.9,31.4,30.25,NNE,21,0.0,0.0,94,0.00,,CLR,0.00,VWS V14.01,2013-01-29 11:17:00,
2013-01-29 06:22:00,32.9,31.4,30.25,NNE,21,0.0,0.0,94,0.00,,CLR,0.00,VWS V14.01,2013-01-29 11:22:00,
2013-01-29 06:27:00,32.9,31.4,30.25,NNE,22,0.0,0.0,94,0.00,,CLR,0.00,VWS V14.01,2013-01-29 11:27:00,
2013-01-29 06:32:00,33.0,31.5,30.25,NNE,21,0.0,0.0,94,0.00,,CLR,0.00,VWS V14.01,2013-01-29 11:32:00,
2013-01-29 06:37:00,32.9,31.4,30.25,NNE,21,0.0,0.0,94,0.00,,CLR,0.00,VWS V14.01,2013-01-29 11:37:00,
2013-01-29 06:42:00,32.7,31.2,30.25,NNE,21,0.0,0.0,94,0.00,,CLR,0.00,VWS V14.01,2013-01-29 11:42:00,
2013-01-29 06:47:00,32.6,31.1,30.25,NNE,22,0.0,0.0,94,0.00,,CLR,0.00,VWS V14.01,2013-01-29 11:47:00,
2013-01-29 06:52:00,32.5,31.0,30.25,NNE,21,0.0,0.0,94,0.00,,CLR,0.00,VWS V14.01,2013-01-29 11:52:00,
2013-01-29 06:57:00,32.5,31.0,30.25,NNE,22,0.0,0.0,94,0.00,,CLR,0.00,VWS V14.01,2013-01-29 11:57:00,
2013-01-29 07:02:00,32.4,30.9,30.25,NNE,22,0.0,0.0,94,0.00,,CLR,0.00,VWS V14.01,2013-01-29 12:02:00,
2013-01-29 07:07:00,32.3,30.8,30.25,NNE,21,0.0,0.0,94,0.00,,CLR,0.00,VWS V14.01,2013-01-29 12:07:00,
2013-01-29 07:12:00,32.3,30.8,30.25,NNE,22,0.0,0.0,94,0.00,,CLR,0.00,VWS V14.01,2013-01-29 12:12:00,
2013-01-29 07:17:00,32.3,30.8,30.25,NNE,22,0.0,0.0,94,0.00,,CLR,0.00,VWS V14.01,2013-01-29 12:17:00,
2013-01-29 07:22:00,32.2,30.7,30.26,NNE,21,0.0,0.0,94,0.00,,CLR,0.00,VWS V14.01,2013-01-29 12:22:00,
2013-01-29 07:27:00,32.1,30.6,30.26,NNE,22,0.0,0.0,94,0.00,,CLR,0.00,VWS V14.01,2013-01-29 12:27:00,
2013-01-29 07:33:00,32.0,30.5,30.26,NNE,22,0.0,0.0,94,0.00,,CLR,0.00,VWS V14.01,2013-01-29 12:33:00,
2013-01-29 07:38:00,32.0,30.5,30.26,NNE,21,0.0,0.0,94,0.00,,CLR,0.00,VWS V14.01,2013-01-29 12:38:00,
2013-01-29 07:43:00,31.9,30.4,30.26,NNE,22,0.0,1.0,94,0.00,,CLR,0.00,VWS V14.01,2013-01-29 12:43:00,
2013-01-29 07:48:00,32.0,30.5,30.26,NNE,23,0.0,0.0,94,0.00,,CLR,0.00,VWS V14.01,2013-01-29 12:48:00,
2013-01-29 07:53:00,32.0,30.5,30.26,NNE,23,0.0,0.0,94,0.00,,CLR,0.00,VWS V14.01,2013-01-29 12:53:00,
2013-01-29 07:58:00,32.1,30.6,30.27,NNE,23,0.0,0.0,94,0.00,,CLR,0.00,VWS V14.01,2013-01-29 12:58:00,
2013-01-29 08:03:00,32.3,30.8,30.27,NNE,23,0.0,0.0,94,0.00,,CLR,0.00,VWS V14.01,2013-01-29 13:03:00,
2013-01-29 08:08:00,32.6,31.1,30.27,NNE,23,0.0,0.0,94,0.00,,CLR,0.00,VWS V14.01,2013-01-29 13:08:00,
2013-01-29 08:13:00,32.8,31.3,30.27,NNE,23,0.0,0.0,94,0.00,,CLR,0.00,VWS V14.01,2013-01-29 13:13:00,
2013-01-29 08:18:00,33.0,31.5,30.27,NNE,23,0.0,0.0,94,0.00,,CLR,0.00,VWS V14.01,2013-01-29 13:18:00,
2013-01-29 08:23:00,33.3,31.8,30.26,NNE,23,0.0,0.0,94,0.00,,CLR,0.00,VWS V14.01,2013-01-29 13:23:00,
2013-01-29 08:28:00,33.7,32.2,30.26,NNE,23,0.0,1.0,94,0.00,,CLR,0.00,VWS V14.01,2013-01-29 13:28:00,
2013-01-29 08:33:00,34.1,32.6,30.27,NNE,23,0.0,0.0,94,0.00,,CLR,0.00,VWS V14.01,2013-01-29 13:33:00,
2013-01-29 08:38:00,34.5,33.0,30.26,NNE,23,0.0,0.0,94,0.00,,CLR,0.00,VWS V14.01,2013-01-29 13:38:00,
2013-01-29 08:43:00,35.0,33.5,30.26,NNE,23,0.0,0.0,94,0.00,,CLR,0.00,VWS V14.01,2013-01-29 13:43:00,
2013-01-29 08:49:00,35.6,34.0,30.27,NNE,23,0.0,0.0,94,0.00,,CLR,0.00,VWS V14.01,2013-01-29 13:49:00,
2013-01-29 08:54:00,36.1,34.5,30.27,NNE,23,0.0,0.0,94,0.00,,CLR,0.00,VWS V14.01,2013-01-29 13:54:00,
2013-01-29 08:59:00,37.1,35.5,30.27,NNE,23,0.0,1.0,94,0.00,,CLR,0.00,VWS V14.01,2013-01-29 13:59:00,
2013-01-29 09:04:00,38.1,36.5,30.27,NNE,23,0.0,1.0,94,0.00,,CLR,0.00,VWS V14.01,2013-01-29 14:04:00,
2013-01-29 09:09:00,38.9,37.3,30.27,NNE,23,0.0,0.0,94,0.00,,CLR,0.00,VWS V14.01,2013-01-29 14:09:00,
2013-01-29 09:14:00,39.7,38.1,30.27,NNE,23,0.0,0.0,94,0.00,,CLR,0.00,VWS V14.01,2013-01-29 14:14:00,
2013-01-29 09:20:00,40.4,39.1,30.27,NNE,23,0.0,0.0,95,0.00,,CLR,0.00,VWS V14.01,2013-01-29 14:20:00,
2013-01-29 09:25:00,41.3,40.0,30.26,ENE,71,1.0,1.0,95,0.00,,CLR,0.00,VWS V14.01,2013-01-29 14:25:00,
2013-01-29 09:30:00,42.1,40.8,30.27,ENE,77,0.0,0.0,95,0.00,,CLR,0.00,VWS V14.01,2013-01-29 14:30:00,
2013-01-29 09:35:00,42.8,41.5,30.27,ENE,77,0.0,0.0,95,0.00,,CLR,0.00,VWS V14.01,2013-01-29 14:35:00,
2013-01-29 09:40:00,43.9,42.6,30.27,ENE,77,0.0,0.0,95,0.00,,CLR,0.00,VWS V14.01,2013-01-29 14:40:00,
2013-01-29 09:45:00,45.0,43.7,30.27,South,184,1.0,1.0,95,0.00,,CLR,0.00,VWS V14.01,2013-01-29 14:45:00,
2013-01-29 09:50:00,45.9,44.5,30.26,South,185,0.0,0.0,95,0.00,,CLR,0.00,VWS V14.01,2013-01-29 14:50:00,
2013-01-29 09:55:00,46.3,45.0,30.26,South,184,0.0,0.0,95,0.00,,CLR,0.00,VWS V14.01,2013-01-29 14:55:00,
2013-01-29 10:01:00,46.8,45.5,30.27,South,185,0.0,0.0,95,0.00,,CLR,0.00,VWS V14.01,2013-01-29 15:01:00,
2013-01-29 10:06:00,47.7,46.1,30.27,WNW,283,2.0,2.0,94,0.00,,CLR,0.00,VWS V14.01,2013-01-29 15:06:00,
2013-01-29 10:11:00,48.7,47.0,30.27,SSW,210,3.0,4.0,94,0.00,,CLR,0.00,VWS V14.01,2013-01-29 15:11:00,
2013-01-29 10:16:00,50.0,48.3,30.27,SSW,208,1.0,2.0,94,0.00,,CLR,0.00,VWS V14.01,2013-01-29 15:16:00,
2013-01-29 10:22:00,51.4,49.2,30.27,West,269,0.0,1.0,92,0.00,,CLR,0.00,VWS V14.01,2013-01-29 15:22:00,
2013-01-29 10:27:00,52.1,49.6,30.27,NE,43,0.0,1.0,91,0.00,,CLR,0.00,VWS V14.01,2013-01-29 15:27:00,
2013-01-29 10:32:00,53.3,50.5,30.26,West,266,0.0,0.0,90,0.00,,CLR,0.00,VWS V14.01,2013-01-29 15:32:00,
2013-01-29 10:37:00,54.3,50.2,30.26,ESE,115,0.0,0.0,86,0.00,,CLR,0.00,VWS V14.01,2013-01-29 15:37:00,
2013-01-29 10:42:00,54.5,49.1,30.26,NE,45,0.0,0.0,82,0.00,,CLR,0.00,VWS V14.01,2013-01-29 15:42:00,
2013-01-29 10:47:00,55.5,49.4,30.26,WSW,253,0.0,0.0,80,0.00,,CLR,0.00,VWS V14.01,2013-01-29 15:47:00,
2013-01-29 10:52:00,56.3,49.2,30.26,SSW,212,1.0,1.0,77,0.00,,CLR,0.00,VWS V14.01,2013-01-29 15:52:00,
2013-01-29 10:57:00,56.8,49.0,30.26,West,276,1.0,1.0,75,0.00,,CLR,0.00,VWS V14.01,2013-01-29 15:57:00,
2013-01-29 11:02:00,57.3,49.1,30.25,ENE,70,1.0,2.0,74,0.00,,CLR,0.00,VWS V14.01,2013-01-29 16:02:00,
2013-01-29 11:07:00,57.7,49.1,30.25,NNE,30,0.0,0.0,73,0.00,,CLR,0.00,VWS V14.01,2013-01-29 16:07:00,
2013-01-29 11:14:00,58.8,49.4,30.24,SSW,198,0.0,1.0,71,0.00,,CLR,0.00,VWS V14.01,2013-01-29 16:14:00,
2013-01-29 11:19:00,59.3,49.5,30.24,SW,215,0.0,1.0,70,0.00,,CLR,0.00,VWS V14.01,2013-01-29 16:19:00,
2013-01-29 11:24:00,59.7,49.5,30.24,SE,139,2.0,2.0,69,0.00,,CLR,0.00,VWS V14.01,2013-01-29 16:24:00,
2013-01-29 11:29:00,60.0,49.4,30.23,SE,143,4.0,4.0,68,0.00,,CLR,0.00,VWS V14.01,2013-01-29 16:29:00,
2013-01-29 11:34:00,60.1,49.1,30.23,SE,135,2.0,3.0,67,0.00,,CLR,0.00,VWS V14.01,2013-01-29 16:34:00,
2013-01-29 11:39:00,60.1,48.7,30.23,SSW,203,3.0,4.0,66,0.00,,CLR,0.00,VWS V14.01,2013-01-29 16:39:00,
2013-01-29 11:44:00,59.8,48.4,30.23,SE,134,3.0,4.0,66,0.00,,CLR,0.00,VWS V14.01,2013-01-29 16:44:00,
2013-01-29 11:49:00,59.6,48.2,30.23,SSE,162,1.0,2.0,66,0.00,,CLR,0.00,VWS V14.01,2013-01-29 16:49:00,
2013-01-29 11:54:00,59.7,48.7,30.23,SE,127,2.0,5.0,67,0.00,,CLR,0.00,VWS V14.01,2013-01-29 16:54:00,
2013-01-29 11:59:00,60.1,49.1,30.23,WSW,242,1.0,2.0,67,0.00,,CLR,0.00,VWS V14.01,2013-01-29 16:59:00,
2013-01-29 12:04:00,60.4,49.0,30.22,SSE,148,2.0,4.0,66,0.00,,CLR,0.00,VWS V14.01,2013-01-29 17:04:00,
2013-01-29 12:09:00,60.9,49.5,30.22,SE,133,1.0,1.0,66,0.00,,CLR,0.00,VWS V14.01,2013-01-29 17:09:00,
2013-01-29 12:14:00,61.2,49.3,30.22,SSE,163,2.0,2.0,65,0.00,,CLR,0.00,VWS V14.01,2013-01-29 17:14:00,
2013-01-29 12:19:00,61.2,48.9,30.21,ESE,122,0.0,0.0,64,0.00,,CLR,0.00,VWS V14.01,2013-01-29 17:19:00,
2013-01-29 12:24:00,61.9,49.6,30.21,SE,141,3.0,3.0,64,0.00,,CLR,0.00,VWS V14.01,2013-01-29 17:24:00,
2013-01-29 12:29:00,62.5,49.8,30.21,SE,131,3.0,3.0,63,0.00,,CLR,0.00,VWS V14.01,2013-01-29 17:29:00,
2013-01-29 12:34:00,63.1,49.5,30.20,SSW,198,2.0,2.0,61,0.00,,CLR,0.00,VWS V14.01,2013-01-29 17:34:00,
2013-01-29 12:39:00,63.7,50.0,30.20,SSE,155,1.0,1.0,61,0.00,,CLR,0.00,VWS V14.01,2013-01-29 17:39:00,
2013-01-29 12:44:00,64.3,49.7,30.20,West,260,1.0,2.0,59,0.00,,CLR,0.00,VWS V14.01,2013-01-29 17:44:00,
2013-01-29 12:49:00,64.4,49.8,30.20,South,185,1.0,1.0,59,0.00,,CLR,0.00,VWS V14.01,2013-01-29 17:49:00,
2013-01-29 12:54:00,64.8,50.2,30.19,SSE,158,0.0,0.0,59,0.00,,CLR,0.00,VWS V14.01,2013-01-29 17:54:00,
2013-01-29 12:59:00,65.2,50.5,30.19,SSE,167,0.0,0.0,59,0.00,,CLR,0.00,VWS V14.01,2013-01-29 17:59:00,
2013-01-29 13:04:00,65.7,50.5,30.19,NW,307,1.0,1.0,58,0.00,,CLR,0.00,VWS V14.01,2013-01-29 18:04:00,
2013-01-29 13:09:00,66.7,52.4,30.18,SE,145,1.0,1.0,60,0.00,,CLR,0.00,VWS V14.01,2013-01-29 18:09:00,
2013-01-29 13:14:00,66.9,52.1,30.18,SSE,153,3.0,4.0,59,0.00,,CLR,0.00,VWS V14.01,2013-01-29 18:14:00,
2013-01-29 13:20:00,67.3,52.0,30.18,SE,139,2.0,3.0,58,0.00,,CLR,0.00,VWS V14.01,2013-01-29 18:20:00,
2013-01-29 13:25:00,67.5,52.7,30.17,NNE,30,1.0,1.0,59,0.00,,CLR,0.00,VWS V14.01,2013-01-29 18:25:00,
2013-01-29 13:30:00,68.0,52.7,30.17,SSE,160,4.0,4.0,58,0.00,,CLR,0.00,VWS V14.01,2013-01-29 18:30:00,
2013-01-29 13:36:00,68.6,52.8,30.16,WSW,253,0.0,1.0,57,0.00,,CLR,0.00,VWS V14.01,2013-01-29 18:36:00,
2013-01-29 13:41:00,69.0,53.2,30.16,NNE,15,0.0,2.0,57,0.00,,CLR,0.00,VWS V14.01,2013-01-29 18:41:00,
2013-01-29 13:46:00,69.1,53.2,30.15,SSE,156,2.0,4.0,57,0.00,,CLR,0.00,VWS V14.01,2013-01-29 18:46:00,
2013-01-29 13:52:00,69.4,53.5,30.15,SE,131,4.0,4.0,57,0.00,,CLR,0.00,VWS V14.01,2013-01-29 18:52:00,
2013-01-29 13:58:00,69.1,53.7,30.14,SE,143,1.0,2.0,58,0.00,,CLR,0.00,VWS V14.01,2013-01-29 18:58:00,
2013-01-29 14:03:00,69.0,54.1,30.14,NE,47,0.0,0.0,59,0.00,,CLR,0.00,VWS V14.01,2013-01-29 19:03:00,
2013-01-29 14:08:00,69.2,53.8,30.14,NE,46,0.0,1.0,58,0.00,,CLR,0.00,VWS V14.01,2013-01-29 19:08:00,
2013-01-29 14:14:00,69.6,53.7,30.14,SE,143,1.0,3.0,57,0.00,,CLR,0.00,VWS V14.01,2013-01-29 19:14:00,
2013-01-29 14:19:00,69.4,53.5,30.14,NE,37,1.0,2.0,57,0.00,,CLR,0.00,VWS V14.01,2013-01-29 19:19:00,
2013-01-29 14:24:00,69.3,53.9,30.14,North,6,2.0,2.0,58,0.00,,CLR,0.00,VWS V14.01,2013-01-29 19:24:00,
2013-01-29 14:29:00,69.0,53.6,30.14,NNE,26,0.0,0.0,58,0.00,,CLR,0.00,VWS V14.01,2013-01-29 19:29:00,
2013-01-29 14:34:00,68.8,53.9,30.14,NE,35,1.0,1.0,59,0.00,,CLR,0.00,VWS V14.01,2013-01-29 19:34:00,
2013-01-29 14:39:00,68.8,53.9,30.14,SSE,149,3.0,3.0,59,0.00,,CLR,0.00,VWS V14.01,2013-01-29 19:39:00,
2013-01-29 14:46:00,69.8,54.8,30.14,SE,128,1.0,1.0,59,0.00,,CLR,0.00,VWS V14.01,2013-01-29 19:46:00,
2013-01-29 14:51:00,70.9,55.4,30.13,SE,125,2.0,3.0,58,0.00,,CLR,0.00,VWS V14.01,2013-01-29 19:51:00,
2013-01-29 14:56:00,71.2,55.2,30.13,ESE,120,0.0,2.0,57,0.00,,CLR,0.00,VWS V14.01,2013-01-29 19:56:00,
2013-01-29 15:00:00,71.7,55.7,30.13,SSE,163,1.0,1.0,57,0.00,,CLR,0.00,VWS V14.01,2013-01-29 20:00:00,
2013-01-29 15:05:00,71.7,56.2,30.12,SE,136,1.0,2.0,58,0.00,,CLR,0.00,VWS V14.01,2013-01-29 20:05:00,
2013-01-29 15:10:00,71.6,55.6,30.12,SSE,148,3.0,3.0,57,0.00,,CLR,0.00,VWS V14.01,2013-01-29 20:10:00,
2013-01-29 15:16:00,71.5,55.5,30.12,SSW,192,3.0,3.0,57,0.00,,CLR,0.00,VWS V14.01,2013-01-29 20:16:00,
2013-01-29 15:21:00,71.5,56.4,30.12,SSE,150,5.0,5.0,59,0.00,,CLR,0.00,VWS V14.01,2013-01-29 20:21:00,
2013-01-29 15:26:00,71.1,56.1,30.12,SW,227,1.0,1.0,59,0.00,,CLR,0.00,VWS V14.01,2013-01-29 20:26:00,
2013-01-29 15:32:00,70.6,56.1,30.12,SE,146,2.0,3.0,60,0.00,,CLR,0.00,VWS V14.01,2013-01-29 20:32:00,
2013-01-29 15:37:00,70.3,57.6,30.11,SSW,211,3.0,5.0,64,0.00,,CLR,0.00,VWS V14.01,2013-01-29 20:37:00,
2013-01-29 15:42:00,70.5,58.2,30.11,South,183,3.0,8.0,65,0.00,,CLR,0.00,VWS V14.01,2013-01-29 20:42:00,
2013-01-29 15:47:00,70.5,58.2,30.12,SSE,155,6.0,6.0,65,0.00,,CLR,0.00,VWS V14.01,2013-01-29 20:47:00,
2013-01-29 15:54:00,70.5,58.2,30.12,SSW,202,4.0,6.0,65,0.00,,CLR,0.00,VWS V14.01,2013-01-29 20:54:00,
2013-01-29 15:59:00,70.4,58.1,30.12,ESE,103,8.0,9.0,65,0.00,,CLR,0.00,VWS V14.01,2013-01-29 20:59:00,
2013-01-29 16:04:00,70.3,58.0,30.11,SSW,205,5.0,6.0,65,0.00,,CLR,0.00,VWS V14.01,2013-01-29 21:04:00,
2013-01-29 16:09:00,70.1,58.2,30.11,SW,235,5.0,5.0,66,0.00,,CLR,0.00,VWS V14.01,2013-01-29 21:09:00,
2013-01-29 16:14:00,69.9,58.0,30.11,SE,131,2.0,12.0,66,0.00,,CLR,0.00,VWS V14.01,2013-01-29 21:14:00,
2013-01-29 16:20:00,69.7,58.3,30.11,WSW,239,3.0,4.0,67,0.00,,CLR,0.00,VWS V14.01,2013-01-29 21:20:00,
2013-01-29 16:26:00,69.3,58.3,30.11,SE,143,5.0,6.0,68,0.00,,CLR,0.00,VWS V14.01,2013-01-29 21:26:00,
2013-01-29 16:31:00,69.0,58.0,30.11,South,183,4.0,4.0,68,0.00,,CLR,0.00,VWS V14.01,2013-01-29 21:31:00,
2013-01-29 16:36:00,68.7,58.1,30.11,SSE,165,2.0,7.0,69,0.00,,CLR,0.00,VWS V14.01,2013-01-29 21:36:00,
2013-01-29 16:41:00,68.4,57.8,30.11,ESE,118,2.0,2.0,69,0.00,,CLR,0.00,VWS V14.01,2013-01-29 21:41:00,
2013-01-29 16:46:00,68.1,58.0,30.11,SSE,148,3.0,8.0,70,0.00,,CLR,0.00,VWS V14.01,2013-01-29 21:46:00,
2013-01-29 16:51:00,67.8,58.1,30.11,WSW,239,1.0,5.0,71,0.00,,CLR,0.00,VWS V14.01,2013-01-29 21:51:00,
2013-01-29 16:57:00,67.6,57.9,30.11,SSW,204,0.0,2.0,71,0.00,,CLR,0.00,VWS V14.01,2013-01-29 21:57:00,
2013-01-29 17:02:00,67.4,58.1,30.11,South,170,1.0,3.0,72,0.00,,CLR,0.00,VWS V14.01,2013-01-29 22:02:00,
2013-01-29 17:07:00,67.1,57.8,30.11,SSW,212,1.0,2.0,72,0.00,,CLR,0.00,VWS V14.01,2013-01-29 22:07:00,
2013-01-29 17:12:00,66.9,58.0,30.11,SE,139,3.0,4.0,73,0.00,,CLR,0.00,VWS V14.01,2013-01-29 22:12:00,
2013-01-29 17:17:00,66.6,57.7,30.11,SSE,158,2.0,2.0,73,0.00,,CLR,0.00,VWS V14.01,2013-01-29 22:17:00,
2013-01-29 17:23:00,66.3,57.8,30.11,SSW,197,0.0,0.0,74,0.00,,CLR,0.00,VWS V14.01,2013-01-29 22:23:00,
2013-01-29 17:28:00,65.9,57.8,30.10,SSW,197,0.0,0.0,75,0.00,,CLR,0.00,VWS V14.01,2013-01-29 22:28:00,
2013-01-29 17:34:00,65.4,57.3,30.10,ESE,110,2.0,3.0,75,0.00,,CLR,0.00,VWS V14.01,2013-01-29 22:34:00,
2013-01-29 17:39:00,65.0,57.3,30.10,South,191,0.0,2.0,76,0.00,,CLR,0.00,VWS V14.01,2013-01-29 22:39:00,
2013-01-29 17:44:00,64.4,57.0,30.10,SSE,155,1.0,3.0,77,0.00,,CLR,0.00,VWS V14.01,2013-01-29 22:44:00,
2013-01-29 17:49:00,64.1,57.1,30.10,SE,141,4.0,5.0,78,0.00,,CLR,0.00,VWS V14.01,2013-01-29 22:49:00,
2013-01-29 17:54:00,64.3,57.3,30.10,South,188,2.0,2.0,78,0.00,,CLR,0.00,VWS V14.01,2013-01-29 22:54:00,
2013-01-29 17:59:00,64.3,57.3,30.11,South,177,1.0,2.0,78,0.00,,CLR,0.00,VWS V14.01,2013-01-29 22:59:00,
2013-01-29 18:04:00,64.1,57.1,30.11,SE,134,1.0,4.0,78,0.00,,CLR,0.00,VWS V14.01,2013-01-29 23:04:00,
2013-01-29 18:09:00,64.0,57.4,30.11,ESE,110,1.0,1.0,79,0.00,,CLR,0.00,VWS V14.01,2013-01-29 23:09:00,
2013-01-29 18:14:00,63.9,57.3,30.11,WSW,238,0.0,0.0,79,0.00,,CLR,0.00,VWS V14.01,2013-01-29 23:14:00,
2013-01-29 18:19:00,63.8,57.2,30.11,ESE,118,3.0,3.0,79,0.00,,CLR,0.00,VWS V14.01,2013-01-29 23:19:00,
2013-01-29 18:24:00,63.7,57.1,30.11,SSE,165,1.0,1.0,79,0.00,,CLR,0.00,VWS V14.01,2013-01-29 23:24:00,
2013-01-29 18:29:00,63.6,57.3,30.11,SE,134,1.0,1.0,80,0.00,,CLR,0.00,VWS V14.01,2013-01-29 23:29:00,
2013-01-29 18:34:00,63.6,57.3,30.11,SE,125,1.0,3.0,80,0.00,,CLR,0.00,VWS V14.01,2013-01-29 23:34:00,
2013-01-29 18:39:00,63.5,57.2,30.11,SE,141,1.0,1.0,80,0.00,,CLR,0.00,VWS V14.01,2013-01-29 23:39:00,
2013-01-29 18:44:00,63.2,56.9,30.11,SE,142,2.0,3.0,80,0.00,,CLR,0.00,VWS V14.01,2013-01-29 23:44:00,
2013-01-29 18:50:00,63.3,57.4,30.11,SSE,155,2.0,2.0,81,0.00,,CLR,0.00,VWS V14.01,2013-01-29 23:50:00,
2013-01-29 18:55:00,63.5,57.2,30.11,East,87,1.0,1.0,80,0.00,,CLR,0.00,VWS V14.01,2013-01-29 23:55:00,
2013-01-29 19:00:00,63.7,57.4,30.11,West,276,2.0,2.0,80,0.00,,CLR,0.00,VWS V14.01,2013-01-30 00:00:00,
2013-01-29 19:05:00,63.8,57.5,30.11,SE,128,1.0,3.0,80,0.00,,CLR,0.00,VWS V14.01,2013-01-30 00:05:00,
2013-01-29 19:10:00,64.0,57.7,30.11,WSW,248,2.0,3.0,80,0.00,,CLR,0.00,VWS V14.01,2013-01-30 00:10:00,
2013-01-29 19:15:00,64.1,57.8,30.11,ESE,120,2.0,2.0,80,0.00,,CLR,0.00,VWS V14.01,2013-01-30 00:15:00,
2013-01-29 19:20:00,64.1,57.8,30.11,SSE,152,3.0,3.0,80,0.00,,CLR,0.00,VWS V14.01,2013-01-30 00:20:00,
2013-01-29 19:25:00,64.1,57.8,30.11,South,188,3.0,3.0,80,0.00,,CLR,0.00,VWS V14.01,2013-01-30 00:25:00,
2013-01-29 19:30:00,64.2,57.9,30.11,SSE,149,7.0,8.0,80,0.00,,CLR,0.00,VWS V14.01,2013-01-30 00:30:00,
2013-01-29 19:35:00,64.3,58.0,30.10,SE,141,3.0,4.0,80,0.00,,CLR,0.00,VWS V14.01,2013-01-30 00:35:00,
2013-01-29 19:40:00,64.3,58.0,30.10,South,182,1.0,2.0,80,0.00,,CLR,0.00,VWS V14.01,2013-01-30 00:40:00,
2013-01-29 19:46:00,64.2,57.9,30.10,SE,142,1.0,4.0,80,0.00,,CLR,0.00,VWS V14.01,2013-01-30 00:46:00,
2013-01-29 19:51:00,64.2,57.9,30.10,SSE,162,1.0,3.0,80,0.00,,CLR,0.00,VWS V14.01,2013-01-30 00:51:00,
2013-01-29 19:56:00,64.1,57.8,30.10,SE,135,2.0,2.0,80,0.00,,CLR,0.00,VWS V14.01,2013-01-30 00:56:00,
2013-01-29 20:01:00,64.0,57.7,30.10,SW,219,1.0,2.0,80,0.00,,CLR,0.00,VWS V14.01,2013-01-30 01:01:00,
2013-01-29 20:06:00,64.0,57.7,30.10,SE,145,1.0,1.0,80,0.00,,CLR,0.00,VWS V14.01,2013-01-30 01:06:00,
2013-01-29 20:11:00,63.8,57.5,30.10,SSE,152,1.0,1.0,80,0.00,,CLR,0.00,VWS V14.01,2013-01-30 01:11:00,
2013-01-29 20:16:00,63.6,57.7,30.11,SE,136,1.0,2.0,81,0.00,,CLR,0.00,VWS V14.01,2013-01-30 01:16:00,
2013-01-29 20:21:00,63.5,57.6,30.10,SE,146,0.0,0.0,81,0.00,,CLR,0.00,VWS V14.01,2013-01-30 01:21:00,
2013-01-29 20:26:00,63.2,57.3,30.10,SE,145,0.0,0.0,81,0.00,,CLR,0.00,VWS V14.01,2013-01-30 01:26:00,
2013-01-29 20:32:00,62.7,57.1,30.10,ESE,122,0.0,1.0,82,0.00,,CLR,0.00,VWS V14.01,2013-01-30 01:32:00,
2013-01-29 20:37:00,62.3,56.7,30.10,SE,135,0.0,1.0,82,0.00,,CLR,0.00,VWS V14.01,2013-01-30 01:37:00,
2013-01-29 20:42:00,62.1,56.9,30.10,South,190,0.0,0.0,83,0.00,,CLR,0.00,VWS V14.01,2013-01-30 01:42:00,
2013-01-29 20:47:00,61.9,56.7,30.10,ESE,123,1.0,1.0,83,0.00,,CLR,0.00,VWS V14.01,2013-01-30 01:47:00,
2013-01-29 20:53:00,61.5,56.3,30.11,ESE,122,0.0,0.0,83,0.00,,CLR,0.00,VWS V14.01,2013-01-30 01:53:00,
2013-01-29 20:58:00,61.2,56.3,30.10,ESE,123,0.0,1.0,84,0.00,,CLR,0.00,VWS V14.01,2013-01-30 01:58:00,
2013-01-29 21:03:00,60.8,55.9,30.10,ESE,122,0.0,0.0,84,0.00,,CLR,0.00,VWS V14.01,2013-01-30 02:03:00,
2013-01-29 21:08:00,60.0,55.2,30.11,ESE,122,0.0,0.0,84,0.00,,CLR,0.00,VWS V14.01,2013-01-30 02:08:00,
2013-01-29 21:13:00,59.3,54.5,30.11,ESE,122,0.0,0.0,84,0.00,,CLR,0.00,VWS V14.01,2013-01-30 02:13:00,
2013-01-29 21:18:00,58.7,54.2,30.11,ESE,123,0.0,0.0,85,0.00,,CLR,0.00,VWS V14.01,2013-01-30 02:18:00,
2013-01-29 21:23:00,58.5,54.3,30.11,ESE,122,0.0,0.0,86,0.00,,CLR,0.00,VWS V14.01,2013-01-30 02:23:00,
2013-01-29 21:28:00,58.2,54.4,30.11,ESE,122,0.0,0.0,87,0.00,,CLR,0.00,VWS V14.01,2013-01-30 02:28:00,
2013-01-29 21:33:00,58.1,54.3,30.11,ESE,122,0.0,0.0,87,0.00,,CLR,0.00,VWS V14.01,2013-01-30 02:33:00,
2013-01-29 21:38:00,58.0,54.5,30.10,ESE,122,0.0,0.0,88,0.00,,CLR,0.00,VWS V14.01,2013-01-30 02:38:00,
2013-01-29 21:43:00,57.8,54.3,30.10,SE,133,0.0,0.0,88,0.00,,CLR,0.00,VWS V14.01,2013-01-30 02:43:00,
2013-01-29 21:48:00,57.6,54.1,30.10,SE,133,0.0,1.0,88,0.00,,CLR,0.00,VWS V14.01,2013-01-30 02:48:00,
2013-01-29 21:53:00,57.5,54.0,30.09,SE,132,0.0,1.0,88,0.00,,CLR,0.00,VWS V14.01,2013-01-30 02:53:00,
2013-01-29 21:58:00,57.3,53.8,30.09,SE,132,0.0,0.0,88,0.00,,CLR,0.00,VWS V14.01,2013-01-30 02:58:00,
2013-01-29 22:03:00,57.2,53.7,30.09,SE,132,0.0,0.0,88,0.00,,CLR,0.00,VWS V14.01,2013-01-30 03:03:00,
2013-01-29 22:08:00,57.1,53.6,30.08,SE,132,0.0,0.0,88,0.00,,CLR,0.00,VWS V14.01,2013-01-30 03:08:00,
2013-01-29 22:13:00,57.1,53.9,30.08,SE,132,0.0,1.0,89,0.00,,CLR,0.00,VWS V14.01,2013-01-30 03:13:00,
2013-01-29 22:18:00,57.0,53.8,30.08,SE,132,0.0,0.0,89,0.00,,CLR,0.00,VWS V14.01,2013-01-30 03:18:00,
2013-01-29 22:23:00,56.8,53.6,30.08,SE,133,0.0,0.0,89,0.00,,CLR,0.00,VWS V14.01,2013-01-30 03:23:00,
2013-01-29 22:28:00,56.8,53.6,30.08,SE,132,0.0,0.0,89,0.00,,CLR,0.00,VWS V14.01,2013-01-30 03:28:00,
2013-01-29 22:33:00,56.5,53.0,30.08,SSE,153,0.0,0.0,88,0.00,,CLR,0.00,VWS V14.01,2013-01-30 03:33:00,
2013-01-29 22:38:00,56.7,53.5,30.08,SSE,153,0.0,0.0,89,0.00,,CLR,0.00,VWS V14.01,2013-01-30 03:38:00,
2013-01-29 22:43:00,56.6,53.4,30.08,SSE,152,0.0,0.0,89,0.00,,CLR,0.00,VWS V14.01,2013-01-30 03:43:00,
2013-01-29 22:48:00,56.6,53.4,30.08,SSE,151,0.0,0.0,89,0.00,,CLR,0.00,VWS V14.01,2013-01-30 03:48:00,
2013-01-29 22:53:00,56.5,53.3,30.08,SSE,152,0.0,0.0,89,0.00,,CLR,0.00,VWS V14.01,2013-01-30 03:53:00,
2013-01-29 22:59:00,56.3,53.1,30.08,SSE,152,0.0,0.0,89,0.00,,CLR,0.00,VWS V14.01,2013-01-30 03:59:00,
2013-01-29 23:04:00,56.3,53.4,30.08,SSE,152,0.0,0.0,90,0.00,,CLR,0.00,VWS V14.01,2013-01-30 04:04:00,